sensor_id;sensor_type;location;lat;lon;timestamp;temperature;humidity
47482;DHT22;33219;47.410;9.730;2023-05-23T00:01:25;17.60;99.90
47482;DHT22;33219;47.410;9.730;2023-05-23T00:03:52;17.60;99.90
47482;DHT22;33219;47.410;9.730;2023-05-23T00:06:21;17.60;99.90
47482;DHT22;33219;47.410;9.730;2023-05-23T00:08:49;17.60;99.90
47482;DHT22;33219;47.410;9.730;2023-05-23T00:11:16;17.60;99.90
47482;DHT22;33219;47.410;9.730;2023-05-23T00:13:45;17.50;99.90
47482;DHT22;33219;47.410;9.730;2023-05-23T00:16:13;17.60;99.90
47482;DHT22;33219;47.410;9.730;2023-05-23T00:18:41;17.60;99.90
47482;DHT22;33219;47.410;9.730;2023-05-23T00:21:13;17.60;99.90
47482;DHT22;33219;47.410;9.730;2023-05-23T00:23:41;17.60;99.90
47482;DHT22;33219;47.410;9.730;2023-05-23T00:26:09;17.60;99.90
47482;DHT22;33219;47.410;9.730;2023-05-23T00:28:37;17.60;99.90
47482;DHT22;33219;47.410;9.730;2023-05-23T00:31:05;17.50;99.90
47482;DHT22;33219;47.410;9.730;2023-05-23T00:33:32;17.60;99.90
47482;DHT22;33219;47.410;9.730;2023-05-23T00:36:00;17.60;99.90
47482;DHT22;33219;47.410;9.730;2023-05-23T00:38:27;17.60;99.90
47482;DHT22;33219;47.410;9.730;2023-05-23T00:41:00;17.50;99.90
47482;DHT22;33219;47.410;9.730;2023-05-23T00:43:24;17.50;99.90
47482;DHT22;33219;47.410;9.730;2023-05-23T00:45:52;17.50;99.90
47482;DHT22;33219;47.410;9.730;2023-05-23T00:48:19;17.50;99.90
47482;DHT22;33219;47.410;9.730;2023-05-23T00:50:47;17.40;99.90
47482;DHT22;33219;47.410;9.730;2023-05-23T00:53:15;17.50;99.90
47482;DHT22;33219;47.410;9.730;2023-05-23T00:55:43;17.40;99.90
47482;DHT22;33219;47.410;9.730;2023-05-23T00:58:11;17.30;99.90
47482;DHT22;33219;47.410;9.730;2023-05-23T01:00:42;17.40;99.90
47482;DHT22;33219;47.410;9.730;2023-05-23T01:03:11;17.30;99.90
47482;DHT22;33219;47.410;9.730;2023-05-23T01:05:41;17.40;99.90
47482;DHT22;33219;47.410;9.730;2023-05-23T01:08:09;17.40;99.90
47482;DHT22;33219;47.410;9.730;2023-05-23T01:10:37;17.30;99.90
47482;DHT22;33219;47.410;9.730;2023-05-23T01:13:23;17.30;99.90
47482;DHT22;33219;47.410;9.730;2023-05-23T01:16:01;17.30;99.90
47482;DHT22;33219;47.410;9.730;2023-05-23T01:18:43;17.20;99.90
47482;DHT22;33219;47.410;9.730;2023-05-23T01:21:17;17.20;99.90
47482;DHT22;33219;47.410;9.730;2023-05-23T01:24:07;17.20;99.90
47482;DHT22;33219;47.410;9.730;2023-05-23T01:26:51;17.20;99.90
47482;DHT22;33219;47.410;9.730;2023-05-23T01:29:23;17.30;99.90
47482;DHT22;33219;47.410;9.730;2023-05-23T01:31:53;17.40;99.90
47482;DHT22;33219;47.410;9.730;2023-05-23T01:34:21;17.30;99.90
47482;DHT22;33219;47.410;9.730;2023-05-23T01:36:52;17.30;99.90
47482;DHT22;33219;47.410;9.730;2023-05-23T01:39:19;17.30;99.90
47482;DHT22;33219;47.410;9.730;2023-05-23T01:41:48;17.30;99.90
47482;DHT22;33219;47.410;9.730;2023-05-23T01:44:16;17.20;99.90
47482;DHT22;33219;47.410;9.730;2023-05-23T01:46:46;17.20;99.90
47482;DHT22;33219;47.410;9.730;2023-05-23T01:49:14;17.20;99.90
47482;DHT22;33219;47.410;9.730;2023-05-23T01:51:48;17.20;99.90
47482;DHT22;33219;47.410;9.730;2023-05-23T01:54:14;17.20;99.90
47482;DHT22;33219;47.410;9.730;2023-05-23T01:56:46;17.20;99.90
47482;DHT22;33219;47.410;9.730;2023-05-23T01:59:14;17.10;99.90
47482;DHT22;33219;47.410;9.730;2023-05-23T02:01:42;17.10;99.90
47482;DHT22;33219;47.410;9.730;2023-05-23T02:04:10;17.00;99.90
47482;DHT22;33219;47.410;9.730;2023-05-23T02:06:37;17.00;99.90
47482;DHT22;33219;47.410;9.730;2023-05-23T02:09:05;16.90;99.90
47482;DHT22;33219;47.410;9.730;2023-05-23T02:11:32;16.90;99.90
47482;DHT22;33219;47.410;9.730;2023-05-23T02:14:00;16.80;99.90
47482;DHT22;33219;47.410;9.730;2023-05-23T02:16:28;16.80;99.90
47482;DHT22;33219;47.410;9.730;2023-05-23T02:18:55;16.70;99.90
47482;DHT22;33219;47.410;9.730;2023-05-23T02:21:23;16.70;99.90
47482;DHT22;33219;47.410;9.730;2023-05-23T02:23:51;16.60;99.90
47482;DHT22;33219;47.410;9.730;2023-05-23T02:26:18;16.60;99.90
47482;DHT22;33219;47.410;9.730;2023-05-23T02:28:47;16.50;99.90
47482;DHT22;33219;47.410;9.730;2023-05-23T02:31:14;16.50;99.90
47482;DHT22;33219;47.410;9.730;2023-05-23T02:33:42;16.50;99.90
47482;DHT22;33219;47.410;9.730;2023-05-23T02:36:10;16.40;99.90
47482;DHT22;33219;47.410;9.730;2023-05-23T02:38:37;16.40;99.90
47482;DHT22;33219;47.410;9.730;2023-05-23T02:41:05;16.30;99.90
47482;DHT22;33219;47.410;9.730;2023-05-23T02:43:32;16.30;99.90
47482;DHT22;33219;47.410;9.730;2023-05-23T02:46:00;16.30;99.90
47482;DHT22;33219;47.410;9.730;2023-05-23T02:48:28;16.20;99.90
47482;DHT22;33219;47.410;9.730;2023-05-23T02:50:55;16.10;99.90
47482;DHT22;33219;47.410;9.730;2023-05-23T02:53:23;16.10;99.90
47482;DHT22;33219;47.410;9.730;2023-05-23T02:55:50;16.10;99.90
47482;DHT22;33219;47.410;9.730;2023-05-23T02:58:18;16.00;99.90
47482;DHT22;33219;47.410;9.730;2023-05-23T03:00:46;16.00;99.90
47482;DHT22;33219;47.410;9.730;2023-05-23T03:03:14;15.90;99.90
47482;DHT22;33219;47.410;9.730;2023-05-23T03:05:42;15.90;99.90
47482;DHT22;33219;47.410;9.730;2023-05-23T03:08:09;15.80;99.90
47482;DHT22;33219;47.410;9.730;2023-05-23T03:10:37;15.80;99.90
47482;DHT22;33219;47.410;9.730;2023-05-23T03:13:05;15.80;99.90
47482;DHT22;33219;47.410;9.730;2023-05-23T03:15:32;15.80;99.90
47482;DHT22;33219;47.410;9.730;2023-05-23T03:18:00;15.80;99.90
47482;DHT22;33219;47.410;9.730;2023-05-23T03:20:27;15.80;99.90
47482;DHT22;33219;47.410;9.730;2023-05-23T03:22:55;15.80;99.90
47482;DHT22;33219;47.410;9.730;2023-05-23T03:25:22;15.80;99.90
47482;DHT22;33219;47.410;9.730;2023-05-23T03:27:50;15.80;99.90
47482;DHT22;33219;47.410;9.730;2023-05-23T03:30:18;15.90;99.90
47482;DHT22;33219;47.410;9.730;2023-05-23T03:32:46;15.90;99.90
47482;DHT22;33219;47.410;9.730;2023-05-23T03:35:15;15.90;99.90
47482;DHT22;33219;47.410;9.730;2023-05-23T03:37:43;16.00;99.90
47482;DHT22;33219;47.410;9.730;2023-05-23T03:40:11;16.00;99.90
47482;DHT22;33219;47.410;9.730;2023-05-23T03:42:38;16.00;99.90
47482;DHT22;33219;47.410;9.730;2023-05-23T03:45:06;16.10;99.90
47482;DHT22;33219;47.410;9.730;2023-05-23T03:47:34;16.10;99.90
47482;DHT22;33219;47.410;9.730;2023-05-23T03:50:01;16.20;99.90
47482;DHT22;33219;47.410;9.730;2023-05-23T03:52:29;16.20;99.90
47482;DHT22;33219;47.410;9.730;2023-05-23T03:54:57;16.20;99.90
47482;DHT22;33219;47.410;9.730;2023-05-23T03:57:24;16.20;99.90
47482;DHT22;33219;47.410;9.730;2023-05-23T03:59:52;16.30;99.90
47482;DHT22;33219;47.410;9.730;2023-05-23T04:02:20;16.30;99.90
47482;DHT22;33219;47.410;9.730;2023-05-23T04:04:47;16.30;99.90
47482;DHT22;33219;47.410;9.730;2023-05-23T04:07:15;16.40;99.90
47482;DHT22;33219;47.410;9.730;2023-05-23T04:09:42;16.40;99.90
47482;DHT22;33219;47.410;9.730;2023-05-23T04:12:10;16.40;99.90
47482;DHT22;33219;47.410;9.730;2023-05-23T04:14:38;16.40;99.90
47482;DHT22;33219;47.410;9.730;2023-05-23T04:17:05;16.50;99.90
47482;DHT22;33219;47.410;9.730;2023-05-23T04:19:39;16.50;99.90
47482;DHT22;33219;47.410;9.730;2023-05-23T04:22:04;16.50;99.90
47482;DHT22;33219;47.410;9.730;2023-05-23T04:24:31;16.60;99.90
47482;DHT22;33219;47.410;9.730;2023-05-23T04:26:59;16.60;99.90
47482;DHT22;33219;47.410;9.730;2023-05-23T04:29:26;16.60;99.90
47482;DHT22;33219;47.410;9.730;2023-05-23T04:31:56;16.60;99.90
47482;DHT22;33219;47.410;9.730;2023-05-23T04:34:24;16.70;99.90
47482;DHT22;33219;47.410;9.730;2023-05-23T04:36:52;16.70;99.90
47482;DHT22;33219;47.410;9.730;2023-05-23T04:39:20;16.70;99.90
47482;DHT22;33219;47.410;9.730;2023-05-23T04:41:48;16.80;99.90
47482;DHT22;33219;47.410;9.730;2023-05-23T04:44:15;16.80;99.90
47482;DHT22;33219;47.410;9.730;2023-05-23T04:46:43;16.80;99.90
47482;DHT22;33219;47.410;9.730;2023-05-23T04:49:11;16.70;99.90
47482;DHT22;33219;47.410;9.730;2023-05-23T04:51:39;16.70;99.90
47482;DHT22;33219;47.410;9.730;2023-05-23T04:54:07;16.70;99.90
47482;DHT22;33219;47.410;9.730;2023-05-23T04:56:35;16.80;99.90
47482;DHT22;33219;47.410;9.730;2023-05-23T04:59:02;16.80;99.90
47482;DHT22;33219;47.410;9.730;2023-05-23T05:01:30;16.90;99.90
47482;DHT22;33219;47.410;9.730;2023-05-23T05:03:58;16.90;99.90
47482;DHT22;33219;47.410;9.730;2023-05-23T05:06:25;17.00;99.90
47482;DHT22;33219;47.410;9.730;2023-05-23T05:08:54;17.10;99.90
47482;DHT22;33219;47.410;9.730;2023-05-23T05:11:21;17.10;99.90
47482;DHT22;33219;47.410;9.730;2023-05-23T05:13:49;17.20;99.90
47482;DHT22;33219;47.410;9.730;2023-05-23T05:16:17;17.30;99.90
47482;DHT22;33219;47.410;9.730;2023-05-23T05:18:45;17.40;99.90
47482;DHT22;33219;47.410;9.730;2023-05-23T05:21:12;17.50;99.90
47482;DHT22;33219;47.410;9.730;2023-05-23T05:23:40;17.60;99.90
47482;DHT22;33219;47.410;9.730;2023-05-23T05:26:09;17.60;99.90
47482;DHT22;33219;47.410;9.730;2023-05-23T05:28:41;17.60;99.90
47482;DHT22;33219;47.410;9.730;2023-05-23T05:31:17;17.60;99.90
47482;DHT22;33219;47.410;9.730;2023-05-23T05:33:53;17.70;99.90
47482;DHT22;33219;47.410;9.730;2023-05-23T05:36:25;17.70;99.90
47482;DHT22;33219;47.410;9.730;2023-05-23T05:39:02;17.70;99.90
47482;DHT22;33219;47.410;9.730;2023-05-23T05:41:38;17.80;99.90
47482;DHT22;33219;47.410;9.730;2023-05-23T05:44:27;18.30;99.90
47482;DHT22;33219;47.410;9.730;2023-05-23T05:47:08;18.60;99.90
47482;DHT22;33219;47.410;9.730;2023-05-23T05:50:01;18.70;99.90
47482;DHT22;33219;47.410;9.730;2023-05-23T05:53:02;18.70;99.90
47482;DHT22;33219;47.410;9.730;2023-05-23T05:58:38;18.80;99.90
47482;DHT22;33219;47.410;9.730;2023-05-23T06:01:15;18.90;99.90
47482;DHT22;33219;47.410;9.730;2023-05-23T06:06:36;19.00;99.90
47482;DHT22;33219;47.410;9.730;2023-05-23T06:09:21;19.00;99.90
47482;DHT22;33219;47.410;9.730;2023-05-23T06:11:59;19.00;99.90
47482;DHT22;33219;47.410;9.730;2023-05-23T06:14:43;18.70;99.90
47482;DHT22;33219;47.410;9.730;2023-05-23T06:17:21;18.60;99.90
47482;DHT22;33219;47.410;9.730;2023-05-23T06:19:57;18.70;99.90
47482;DHT22;33219;47.410;9.730;2023-05-23T06:22:30;18.70;99.90
47482;DHT22;33219;47.410;9.730;2023-05-23T06:25:06;18.80;99.90
47482;DHT22;33219;47.410;9.730;2023-05-23T06:27:39;19.00;99.90
47482;DHT22;33219;47.410;9.730;2023-05-23T06:30:22;19.10;99.90
47482;DHT22;33219;47.410;9.730;2023-05-23T06:32:58;19.10;99.90
47482;DHT22;33219;47.410;9.730;2023-05-23T06:35:33;19.00;99.90
47482;DHT22;33219;47.410;9.730;2023-05-23T06:38:07;18.90;99.90
47482;DHT22;33219;47.410;9.730;2023-05-23T06:40:42;18.80;99.90
47482;DHT22;33219;47.410;9.730;2023-05-23T06:43:33;18.70;99.90
47482;DHT22;33219;47.410;9.730;2023-05-23T06:46:30;18.60;99.90
47482;DHT22;33219;47.410;9.730;2023-05-23T06:49:12;18.70;99.90
47482;DHT22;33219;47.410;9.730;2023-05-23T06:52:12;18.70;99.90
47482;DHT22;33219;47.410;9.730;2023-05-23T06:54:52;18.90;99.90
47482;DHT22;33219;47.410;9.730;2023-05-23T06:58:02;19.10;99.90
47482;DHT22;33219;47.410;9.730;2023-05-23T07:00:45;19.20;99.90
47482;DHT22;33219;47.410;9.730;2023-05-23T07:09:21;19.60;99.90
47482;DHT22;33219;47.410;9.730;2023-05-23T07:12:25;19.70;99.90
47482;DHT22;33219;47.410;9.730;2023-05-23T07:15:18;19.80;99.90
47482;DHT22;33219;47.410;9.730;2023-05-23T07:18:06;19.80;99.90
47482;DHT22;33219;47.410;9.730;2023-05-23T07:21:12;20.00;99.90
47482;DHT22;33219;47.410;9.730;2023-05-23T07:25:06;20.30;99.90
47482;DHT22;33219;47.410;9.730;2023-05-23T07:28:54;20.60;99.90
47482;DHT22;33219;47.410;9.730;2023-05-23T07:31:42;21.00;99.90
47482;DHT22;33219;47.410;9.730;2023-05-23T07:34:31;21.00;99.90
47482;DHT22;33219;47.410;9.730;2023-05-23T07:40:09;21.60;99.90
47482;DHT22;33219;47.410;9.730;2023-05-23T07:43:04;21.70;99.90
47482;DHT22;33219;47.410;9.730;2023-05-23T07:45:45;21.50;99.90
47482;DHT22;33219;47.410;9.730;2023-05-23T07:51:45;21.40;99.90
47482;DHT22;33219;47.410;9.730;2023-05-23T07:54:34;21.30;99.90
47482;DHT22;33219;47.410;9.730;2023-05-23T07:57:53;21.30;99.90
47482;DHT22;33219;47.410;9.730;2023-05-23T08:05:34;22.50;99.90
47482;DHT22;33219;47.410;9.730;2023-05-23T08:08:42;22.50;99.90
47482;DHT22;33219;47.410;9.730;2023-05-23T08:11:33;22.50;99.90
47482;DHT22;33219;47.410;9.730;2023-05-23T08:14:17;22.30;99.90
47482;DHT22;33219;47.410;9.730;2023-05-23T08:17:09;22.00;99.90
47482;DHT22;33219;47.410;9.730;2023-05-23T08:23:17;21.60;99.90
47482;DHT22;33219;47.410;9.730;2023-05-23T08:26:21;21.60;99.90
47482;DHT22;33219;47.410;9.730;2023-05-23T08:28:59;21.40;99.90
47482;DHT22;33219;47.410;9.730;2023-05-23T08:34:15;20.90;99.90
47482;DHT22;33219;47.410;9.730;2023-05-23T08:36:50;20.90;99.90
47482;DHT22;33219;47.410;9.730;2023-05-23T08:39:25;20.80;99.90
47482;DHT22;33219;47.410;9.730;2023-05-23T08:42:07;20.80;99.90
47482;DHT22;33219;47.410;9.730;2023-05-23T08:44:55;20.80;99.90
47482;DHT22;33219;47.410;9.730;2023-05-23T08:47:41;20.70;99.90
47482;DHT22;33219;47.410;9.730;2023-05-23T08:53:59;20.60;99.90
47482;DHT22;33219;47.410;9.730;2023-05-23T08:57:21;20.80;99.90
47482;DHT22;33219;47.410;9.730;2023-05-23T09:00:00;21.10;99.90
47482;DHT22;33219;47.410;9.730;2023-05-23T09:02:33;21.40;99.90
47482;DHT22;33219;47.410;9.730;2023-05-23T09:05:08;22.30;99.90
47482;DHT22;33219;47.410;9.730;2023-05-23T09:07:44;23.30;99.90
47482;DHT22;33219;47.410;9.730;2023-05-23T09:13:27;24.80;98.90
47482;DHT22;33219;47.410;9.730;2023-05-23T09:18:41;26.50;95.80
47482;DHT22;33219;47.410;9.730;2023-05-23T09:21:20;26.80;94.40
47482;DHT22;33219;47.410;9.730;2023-05-23T09:23:54;26.10;94.80
47482;DHT22;33219;47.410;9.730;2023-05-23T09:26:25;26.60;94.20
47482;DHT22;33219;47.410;9.730;2023-05-23T09:28:57;27.40;93.30
47482;DHT22;33219;47.410;9.730;2023-05-23T09:31:35;27.20;94.30
47482;DHT22;33219;47.410;9.730;2023-05-23T09:34:07;26.50;94.00
47482;DHT22;33219;47.410;9.730;2023-05-23T09:36:47;25.90;94.30
47482;DHT22;33219;47.410;9.730;2023-05-23T09:39:53;25.60;94.50
47482;DHT22;33219;47.410;9.730;2023-05-23T09:42:34;25.10;95.30
47482;DHT22;33219;47.410;9.730;2023-05-23T09:45:09;24.40;96.70
47482;DHT22;33219;47.410;9.730;2023-05-23T09:47:53;24.10;97.70
47482;DHT22;33219;47.410;9.730;2023-05-23T09:50:31;23.50;98.40
47482;DHT22;33219;47.410;9.730;2023-05-23T09:53:02;23.00;99.70
47482;DHT22;33219;47.410;9.730;2023-05-23T09:55:36;22.70;99.90
47482;DHT22;33219;47.410;9.730;2023-05-23T09:58:10;22.40;99.80
47482;DHT22;33219;47.410;9.730;2023-05-23T10:00:40;22.50;98.60
47482;DHT22;33219;47.410;9.730;2023-05-23T10:03:13;22.50;99.10
47482;DHT22;33219;47.410;9.730;2023-05-23T10:05:47;22.80;98.30
47482;DHT22;33219;47.410;9.730;2023-05-23T10:09:05;23.40;98.40
47482;DHT22;33219;47.410;9.730;2023-05-23T10:13:49;24.40;97.80
47482;DHT22;33219;47.410;9.730;2023-05-23T10:16:39;24.80;96.90
47482;DHT22;33219;47.410;9.730;2023-05-23T10:19:23;24.90;96.60
47482;DHT22;33219;47.410;9.730;2023-05-23T10:22:00;24.70;96.70
47482;DHT22;33219;47.410;9.730;2023-05-23T10:24:39;24.70;97.10
47482;DHT22;33219;47.410;9.730;2023-05-23T10:27:19;24.60;96.40
47482;DHT22;33219;47.410;9.730;2023-05-23T10:30:19;24.90;97.20
47482;DHT22;33219;47.410;9.730;2023-05-23T10:33:10;24.90;97.40
47482;DHT22;33219;47.410;9.730;2023-05-23T10:36:13;24.50;96.30
47482;DHT22;33219;47.410;9.730;2023-05-23T10:38:53;24.80;97.50
47482;DHT22;33219;47.410;9.730;2023-05-23T10:44:26;25.60;95.40
47482;DHT22;33219;47.410;9.730;2023-05-23T10:46:59;26.00;95.40
47482;DHT22;33219;47.410;9.730;2023-05-23T10:49:43;25.70;95.50
47482;DHT22;33219;47.410;9.730;2023-05-23T10:52:22;25.80;96.10
47482;DHT22;33219;47.410;9.730;2023-05-23T10:54:51;25.60;96.70
47482;DHT22;33219;47.410;9.730;2023-05-23T10:57:33;25.60;95.20
47482;DHT22;33219;47.410;9.730;2023-05-23T11:00:04;25.50;95.90
47482;DHT22;33219;47.410;9.730;2023-05-23T11:02:33;25.40;94.70
47482;DHT22;33219;47.410;9.730;2023-05-23T11:08:09;25.40;94.60
47482;DHT22;33219;47.410;9.730;2023-05-23T11:11:01;25.60;94.50
47482;DHT22;33219;47.410;9.730;2023-05-23T11:14:00;25.30;94.70
47482;DHT22;33219;47.410;9.730;2023-05-23T11:16:43;25.40;95.60
47482;DHT22;33219;47.410;9.730;2023-05-23T11:19:21;25.30;94.60
47482;DHT22;33219;47.410;9.730;2023-05-23T11:22:05;25.00;94.70
47482;DHT22;33219;47.410;9.730;2023-05-23T11:28:13;25.20;95.60
47482;DHT22;33219;47.410;9.730;2023-05-23T11:31:12;24.90;95.10
47482;DHT22;33219;47.410;9.730;2023-05-23T11:34:09;24.50;95.80
47482;DHT22;33219;47.410;9.730;2023-05-23T11:36:40;24.60;95.30
47482;DHT22;33219;47.410;9.730;2023-05-23T11:39:14;24.60;94.40
47482;DHT22;33219;47.410;9.730;2023-05-23T11:44:39;25.00;93.60
47482;DHT22;33219;47.410;9.730;2023-05-23T11:47:17;25.40;93.50
47482;DHT22;33219;47.410;9.730;2023-05-23T12:18:59;25.30;93.60
47482;DHT22;33219;47.410;9.730;2023-05-23T12:21:43;25.40;92.80
47482;DHT22;33219;47.410;9.730;2023-05-23T12:24:18;25.30;93.90
47482;DHT22;33219;47.410;9.730;2023-05-23T12:27:07;24.80;93.40
47482;DHT22;33219;47.410;9.730;2023-05-23T12:29:33;24.60;93.40
47482;DHT22;33219;47.410;9.730;2023-05-23T12:32:06;24.40;94.10
47482;DHT22;33219;47.410;9.730;2023-05-23T12:34:42;24.20;94.40
47482;DHT22;33219;47.410;9.730;2023-05-23T12:37:14;24.00;94.40
47482;DHT22;33219;47.410;9.730;2023-05-23T12:39:53;24.00;95.50
47482;DHT22;33219;47.410;9.730;2023-05-23T12:42:49;23.80;95.50
47482;DHT22;33219;47.410;9.730;2023-05-23T12:45:24;23.70;95.60
47482;DHT22;33219;47.410;9.730;2023-05-23T12:47:58;23.80;95.00
47482;DHT22;33219;47.410;9.730;2023-05-23T12:50:29;23.80;96.00
47482;DHT22;33219;47.410;9.730;2023-05-23T12:52:59;24.00;95.80
47482;DHT22;33219;47.410;9.730;2023-05-23T12:55:29;23.90;96.40
47482;DHT22;33219;47.410;9.730;2023-05-23T12:58:00;23.90;95.70
47482;DHT22;33219;47.410;9.730;2023-05-23T13:00:32;24.00;95.50
47482;DHT22;33219;47.410;9.730;2023-05-23T13:03:05;24.10;95.50
47482;DHT22;33219;47.410;9.730;2023-05-23T13:05:38;24.10;96.90
47482;DHT22;33219;47.410;9.730;2023-05-23T13:08:08;23.90;96.10
47482;DHT22;33219;47.410;9.730;2023-05-23T13:10:39;23.80;97.00
47482;DHT22;33219;47.410;9.730;2023-05-23T13:13:20;23.80;97.10
47482;DHT22;33219;47.410;9.730;2023-05-23T13:15:53;23.60;96.80
47482;DHT22;33219;47.410;9.730;2023-05-23T13:18:28;23.60;96.70
47482;DHT22;33219;47.410;9.730;2023-05-23T13:20:58;23.80;97.00
47482;DHT22;33219;47.410;9.730;2023-05-23T13:23:25;23.80;96.90
47482;DHT22;33219;47.410;9.730;2023-05-23T13:25:56;24.00;95.70
47482;DHT22;33219;47.410;9.730;2023-05-23T13:28:25;24.10;95.90
47482;DHT22;33219;47.410;9.730;2023-05-23T13:30:53;24.20;94.80
47482;DHT22;33219;47.410;9.730;2023-05-23T13:33:21;24.20;94.90
47482;DHT22;33219;47.410;9.730;2023-05-23T13:35:49;24.10;96.40
47482;DHT22;33219;47.410;9.730;2023-05-23T13:38:19;23.80;96.70
47482;DHT22;33219;47.410;9.730;2023-05-23T13:40:49;23.70;96.90
47482;DHT22;33219;47.410;9.730;2023-05-23T13:43:19;23.60;97.30
47482;DHT22;33219;47.410;9.730;2023-05-23T13:45:47;23.60;97.80
47482;DHT22;33219;47.410;9.730;2023-05-23T13:48:15;23.50;97.50
47482;DHT22;33219;47.410;9.730;2023-05-23T13:50:43;23.60;97.10
47482;DHT22;33219;47.410;9.730;2023-05-23T13:53:12;23.70;97.90
47482;DHT22;33219;47.410;9.730;2023-05-23T13:55:42;23.60;98.00
47482;DHT22;33219;47.410;9.730;2023-05-23T13:58:12;23.50;98.80
47482;DHT22;33219;47.410;9.730;2023-05-23T14:00:40;23.40;98.30
47482;DHT22;33219;47.410;9.730;2023-05-23T14:03:09;23.40;98.60
47482;DHT22;33219;47.410;9.730;2023-05-23T14:05:37;23.60;98.50
47482;DHT22;33219;47.410;9.730;2023-05-23T14:08:05;23.50;98.20
47482;DHT22;33219;47.410;9.730;2023-05-23T14:10:37;23.40;98.70
47482;DHT22;33219;47.410;9.730;2023-05-23T14:13:08;23.30;99.30
47482;DHT22;33219;47.410;9.730;2023-05-23T14:15:36;23.30;99.20
47482;DHT22;33219;47.410;9.730;2023-05-23T14:18:04;23.20;99.50
47482;DHT22;33219;47.410;9.730;2023-05-23T14:20:32;23.00;99.60
47482;DHT22;33219;47.410;9.730;2023-05-23T14:22:59;22.80;99.90
47482;DHT22;33219;47.410;9.730;2023-05-23T14:25:27;22.80;99.90
47482;DHT22;33219;47.410;9.730;2023-05-23T14:27:56;22.90;99.90
47482;DHT22;33219;47.410;9.730;2023-05-23T14:30:25;22.80;99.90
47482;DHT22;33219;47.410;9.730;2023-05-23T14:32:53;22.80;99.90
47482;DHT22;33219;47.410;9.730;2023-05-23T14:35:21;22.60;99.90
47482;DHT22;33219;47.410;9.730;2023-05-23T14:37:48;22.60;99.90
47482;DHT22;33219;47.410;9.730;2023-05-23T14:40:16;22.60;99.90
47482;DHT22;33219;47.410;9.730;2023-05-23T14:42:44;22.70;99.90
47482;DHT22;33219;47.410;9.730;2023-05-23T14:45:15;22.80;99.90
47482;DHT22;33219;47.410;9.730;2023-05-23T14:47:42;22.80;99.90
47482;DHT22;33219;47.410;9.730;2023-05-23T14:50:10;22.80;99.90
47482;DHT22;33219;47.410;9.730;2023-05-23T14:52:38;22.80;99.90
47482;DHT22;33219;47.410;9.730;2023-05-23T14:55:06;23.00;99.90
47482;DHT22;33219;47.410;9.730;2023-05-23T14:57:34;22.90;99.90
47482;DHT22;33219;47.410;9.730;2023-05-23T15:00:02;23.00;99.90
47482;DHT22;33219;47.410;9.730;2023-05-23T15:02:31;23.20;99.90
47482;DHT22;33219;47.410;9.730;2023-05-23T15:04:59;23.30;99.90
47482;DHT22;33219;47.410;9.730;2023-05-23T15:07:26;23.50;99.70
47482;DHT22;33219;47.410;9.730;2023-05-23T15:09:54;23.40;99.50
47482;DHT22;33219;47.410;9.730;2023-05-23T15:12:22;23.30;99.90
47482;DHT22;33219;47.410;9.730;2023-05-23T15:14:49;23.40;99.90
47482;DHT22;33219;47.410;9.730;2023-05-23T15:17:17;23.50;99.00
47482;DHT22;33219;47.410;9.730;2023-05-23T15:19:46;23.40;99.60
47482;DHT22;33219;47.410;9.730;2023-05-23T15:22:14;23.40;99.60
47482;DHT22;33219;47.410;9.730;2023-05-23T15:24:41;23.50;99.60
47482;DHT22;33219;47.410;9.730;2023-05-23T15:27:09;23.00;99.90
47482;DHT22;33219;47.410;9.730;2023-05-23T15:29:37;22.80;99.90
47482;DHT22;33219;47.410;9.730;2023-05-23T15:32:08;22.40;99.90
47482;DHT22;33219;47.410;9.730;2023-05-23T15:34:35;22.20;99.90
47482;DHT22;33219;47.410;9.730;2023-05-23T15:37:03;22.00;99.90
47482;DHT22;33219;47.410;9.730;2023-05-23T15:39:30;21.50;99.90
47482;DHT22;33219;47.410;9.730;2023-05-23T15:41:58;21.00;99.90
47482;DHT22;33219;47.410;9.730;2023-05-23T15:44:26;20.40;99.90
47482;DHT22;33219;47.410;9.730;2023-05-23T15:46:53;19.90;99.90
47482;DHT22;33219;47.410;9.730;2023-05-23T15:49:21;19.50;99.90
47482;DHT22;33219;47.410;9.730;2023-05-23T15:51:48;19.30;99.90
47482;DHT22;33219;47.410;9.730;2023-05-23T15:54:16;19.20;99.90
47482;DHT22;33219;47.410;9.730;2023-05-23T15:56:44;19.00;99.90
47482;DHT22;33219;47.410;9.730;2023-05-23T15:59:11;18.80;99.90
47482;DHT22;33219;47.410;9.730;2023-05-23T16:01:39;18.80;99.90
47482;DHT22;33219;47.410;9.730;2023-05-23T16:04:07;18.80;99.90
47482;DHT22;33219;47.410;9.730;2023-05-23T16:06:35;18.70;99.90
47482;DHT22;33219;47.410;9.730;2023-05-23T16:09:02;18.70;99.90
47482;DHT22;33219;47.410;9.730;2023-05-23T16:11:30;18.80;99.90
47482;DHT22;33219;47.410;9.730;2023-05-23T16:13:58;18.70;99.90
47482;DHT22;33219;47.410;9.730;2023-05-23T16:16:26;18.70;99.90
47482;DHT22;33219;47.410;9.730;2023-05-23T16:18:54;18.60;99.90
47482;DHT22;33219;47.410;9.730;2023-05-23T16:21:21;18.50;99.90
47482;DHT22;33219;47.410;9.730;2023-05-23T16:23:49;18.50;99.90
47482;DHT22;33219;47.410;9.730;2023-05-23T16:26:17;18.50;99.90
47482;DHT22;33219;47.410;9.730;2023-05-23T16:28:45;18.40;99.90
47482;DHT22;33219;47.410;9.730;2023-05-23T16:31:15;18.50;99.90
47482;DHT22;33219;47.410;9.730;2023-05-23T16:33:43;18.50;99.90
47482;DHT22;33219;47.410;9.730;2023-05-23T16:36:11;18.30;99.90
47482;DHT22;33219;47.410;9.730;2023-05-23T16:38:39;18.40;99.90
47482;DHT22;33219;47.410;9.730;2023-05-23T16:41:06;18.30;99.90
47482;DHT22;33219;47.410;9.730;2023-05-23T16:43:34;18.20;99.90
47482;DHT22;33219;47.410;9.730;2023-05-23T16:46:01;18.20;99.90
47482;DHT22;33219;47.410;9.730;2023-05-23T16:48:29;18.10;99.90
47482;DHT22;33219;47.410;9.730;2023-05-23T16:50:57;18.10;99.90
47482;DHT22;33219;47.410;9.730;2023-05-23T16:53:24;18.10;99.90
47482;DHT22;33219;47.410;9.730;2023-05-23T16:55:52;18.10;99.90
47482;DHT22;33219;47.410;9.730;2023-05-23T16:58:20;18.00;99.90
47482;DHT22;33219;47.410;9.730;2023-05-23T17:00:47;18.00;99.90
47482;DHT22;33219;47.410;9.730;2023-05-23T17:03:15;18.00;99.90
47482;DHT22;33219;47.410;9.730;2023-05-23T17:05:43;18.00;99.90
47482;DHT22;33219;47.410;9.730;2023-05-23T17:08:10;18.00;99.90
47482;DHT22;33219;47.410;9.730;2023-05-23T17:10:38;18.00;99.90
47482;DHT22;33219;47.410;9.730;2023-05-23T17:13:06;18.00;99.90
47482;DHT22;33219;47.410;9.730;2023-05-23T17:15:33;17.90;99.90
47482;DHT22;33219;47.410;9.730;2023-05-23T17:18:01;17.90;99.90
47482;DHT22;33219;47.410;9.730;2023-05-23T17:20:29;17.90;99.90
47482;DHT22;33219;47.410;9.730;2023-05-23T17:22:56;17.80;99.90
47482;DHT22;33219;47.410;9.730;2023-05-23T17:25:24;17.80;99.90
47482;DHT22;33219;47.410;9.730;2023-05-23T17:27:52;17.80;99.90
47482;DHT22;33219;47.410;9.730;2023-05-23T17:30:21;17.80;99.90
47482;DHT22;33219;47.410;9.730;2023-05-23T17:32:48;17.80;99.90